createdAt,value
2023-02-12T00:01:51.108Z,39.80
2023-02-12T00:04:59.815Z,35.55
2023-02-12T00:08:07.141Z,36.10
2023-02-12T00:11:13.035Z,39.67
2023-02-12T00:14:18.643Z,32.67
2023-02-12T00:17:24.475Z,36.05
2023-02-12T00:20:30.286Z,36.90
2023-02-12T00:23:37.510Z,31.30
2023-02-12T00:26:43.444Z,32.20
2023-02-12T00:29:49.516Z,31.20
2023-02-12T00:32:56.490Z,30.50
2023-02-12T00:36:11.830Z,31.10
2023-02-12T00:39:18.611Z,30.50
2023-02-12T00:42:24.093Z,33.20
2023-02-12T00:45:30.134Z,35.95
2023-02-12T00:48:35.603Z,39.18
2023-02-12T00:51:41.865Z,45.63
2023-02-12T00:54:48.882Z,41.65
2023-02-12T00:57:54.661Z,38.38
2023-02-12T01:01:00.303Z,38.40
2023-02-12T01:04:07.617Z,45.05
2023-02-12T01:07:13.636Z,39.98
2023-02-12T01:10:22.155Z,43.20
2023-02-12T01:13:29.148Z,44.08
2023-02-12T01:16:38.332Z,51.35
2023-02-12T01:19:44.600Z,32.05
2023-02-12T01:22:49.859Z,38.92
2023-02-12T01:25:57.270Z,38.80
2023-02-12T01:29:08.089Z,46.88
2023-02-12T01:32:14.239Z,48.65
2023-02-12T01:35:19.656Z,44.58
2023-02-12T01:38:25.436Z,41.25
2023-02-12T01:41:36.575Z,43.63
2023-02-12T01:44:47.048Z,37.35
2023-02-12T01:47:52.846Z,43.28
2023-02-12T01:50:58.786Z,35.65
2023-02-12T01:54:07.307Z,38.13
2023-02-12T01:57:15.144Z,42.88
2023-02-12T02:00:26.747Z,39.78
2023-02-12T02:03:31.874Z,41.35
2023-02-12T02:06:42.428Z,39.75
2023-02-12T02:09:50.780Z,43.33
2023-02-12T02:13:16.182Z,39.92
2023-02-12T02:16:31.977Z,40.88
2023-02-12T02:20:18.324Z,43.68
2023-02-12T02:24:13.867Z,33.83
2023-02-12T02:27:31.169Z,35.63
2023-02-12T02:31:09.570Z,45.08
2023-02-12T02:34:23.396Z,31.80
2023-02-12T02:37:57.189Z,32.80
2023-02-12T02:41:29.692Z,32.70
2023-02-12T02:44:52.297Z,35.95
2023-02-12T02:48:11.491Z,38.42
2023-02-12T02:51:24.226Z,33.65
2023-02-12T02:54:39.423Z,32.40
2023-02-12T02:57:58.354Z,33.58
2023-02-12T03:01:08.145Z,30.43
2023-02-12T03:04:19.419Z,28.73
2023-02-12T03:07:39.613Z,30.40
2023-02-12T03:10:51.772Z,28.05
2023-02-12T03:14:24.488Z,34.45
2023-02-12T03:17:45.854Z,30.27
2023-02-12T03:21:02.068Z,34.08
2023-02-12T03:24:32.126Z,31.70
2023-02-12T03:27:48.515Z,38.75
2023-02-12T03:31:27.693Z,39.75
2023-02-12T03:35:05.773Z,37.83
2023-02-12T03:38:47.539Z,38.08
2023-02-12T03:42:19.966Z,30.50
2023-02-12T03:45:35.426Z,38.13
2023-02-12T03:48:53.264Z,35.92
2023-02-12T03:52:01.267Z,32.48
2023-02-12T03:55:08.086Z,35.65
2023-02-12T03:58:15.586Z,38.23
2023-02-12T04:01:20.754Z,34.38
2023-02-12T04:04:25.592Z,32.28
2023-02-12T04:07:32.081Z,33.40
2023-02-12T04:10:46.354Z,36.28
2023-02-12T04:14:06.134Z,32.13
2023-02-12T04:17:29.198Z,34.65
2023-02-12T04:20:46.839Z,43.38
2023-02-12T04:24:30.186Z,36.45
2023-02-12T04:27:49.603Z,33.48
2023-02-12T04:31:14.041Z,25.88
2023-02-12T04:34:37.154Z,35.33
2023-02-12T04:38:04.499Z,31.90
2023-02-12T04:41:10.411Z,31.23
2023-02-12T04:44:35.799Z,32.67
2023-02-12T04:47:41.714Z,33.60
2023-02-12T04:50:54.765Z,32.67
2023-02-12T04:54:00.142Z,32.88
2023-02-12T04:57:06.759Z,35.03
2023-02-12T05:00:13.005Z,39.70
2023-02-12T05:03:19.174Z,35.25
2023-02-12T05:06:26.787Z,38.67
2023-02-12T05:09:35.113Z,37.53
2023-02-12T05:12:40.998Z,36.20
2023-02-12T05:15:46.620Z,36.98
2023-02-12T05:18:45.338Z,36.25
2023-02-12T05:21:37.952Z,36.20
2023-02-12T05:24:43.993Z,38.28
2023-02-12T05:27:49.450Z,37.00
2023-02-12T05:30:56.074Z,35.33
2023-02-12T05:34:02.250Z,34.55
2023-02-12T05:37:07.817Z,34.90
2023-02-12T05:40:13.247Z,39.38
2023-02-12T05:43:18.744Z,41.23
2023-02-12T05:46:24.310Z,46.08
2023-02-12T05:49:30.174Z,37.08
2023-02-12T05:52:35.060Z,39.48
2023-02-12T05:55:40.421Z,39.78
2023-02-12T05:58:45.864Z,38.08
2023-02-12T06:01:54.095Z,41.02
2023-02-12T06:05:00.666Z,38.53
2023-02-12T06:08:06.912Z,34.45
2023-02-12T06:11:22.086Z,38.45
2023-02-12T06:14:32.882Z,38.17
2023-02-12T06:17:40.281Z,37.45
2023-02-12T06:20:46.773Z,35.00
2023-02-12T06:23:52.485Z,43.98
2023-02-12T06:26:58.403Z,39.65
2023-02-12T06:30:04.772Z,40.30
2023-02-12T06:33:10.639Z,39.90
2023-02-12T06:36:19.219Z,37.00
2023-02-12T06:39:18.655Z,42.05
2023-02-12T06:42:12.399Z,37.65
2023-02-12T06:45:18.984Z,33.20
2023-02-12T06:48:25.245Z,37.95
2023-02-12T06:51:33.099Z,42.15
2023-02-12T06:54:38.356Z,39.78
2023-02-12T06:57:44.549Z,38.33
2023-02-12T07:00:50.334Z,36.45
2023-02-12T07:03:56.602Z,39.98
2023-02-12T07:07:03.238Z,37.42
2023-02-12T07:10:09.862Z,35.03
2023-02-12T07:13:15.979Z,35.50
2023-02-12T07:16:24.016Z,40.55
2023-02-12T07:19:29.819Z,34.15
2023-02-12T07:22:35.806Z,39.48
2023-02-12T07:25:42.265Z,38.45
2023-02-12T07:28:48.283Z,39.35
2023-02-12T07:31:53.177Z,39.18
2023-02-12T07:34:59.887Z,37.10
2023-02-12T07:38:05.744Z,33.33
2023-02-12T07:41:23.292Z,37.83
2023-02-12T07:44:29.341Z,34.78
2023-02-12T07:47:35.613Z,35.40
2023-02-12T07:50:40.721Z,35.40
2023-02-12T07:53:46.377Z,37.03
2023-02-12T07:56:53.703Z,35.48
2023-02-12T07:59:52.932Z,36.00
2023-02-12T08:02:59.838Z,36.28
2023-02-12T08:06:06.211Z,34.15
2023-02-12T08:09:13.596Z,36.65
2023-02-12T08:12:18.852Z,33.75
2023-02-12T08:15:26.667Z,36.13
2023-02-12T08:18:32.488Z,30.65
2023-02-12T08:21:42.744Z,28.95
2023-02-12T08:24:49.568Z,25.25
2023-02-12T08:27:56.487Z,26.90
2023-02-12T08:31:01.738Z,30.50
2023-02-12T08:34:08.914Z,22.48
2023-02-12T08:37:15.525Z,23.83
2023-02-12T08:40:22.186Z,21.48
2023-02-12T08:43:27.685Z,19.52
2023-02-12T08:46:36.410Z,11.30
2023-02-12T08:49:43.694Z,73.90
2023-02-12T08:52:49.741Z,78.92
2023-02-12T08:55:58.341Z,19.32
2023-02-12T08:59:04.813Z,12.80
2023-02-12T09:02:12.968Z,17.92
2023-02-12T09:05:18.666Z,42.60
2023-02-12T09:08:24.402Z,4.92
2023-02-12T09:11:33.833Z,10.28
2023-02-12T09:14:39.341Z,11.85
2023-02-12T09:17:47.917Z,11.60
2023-02-12T09:20:57.214Z,5.53
2023-02-12T09:24:02.187Z,7.22
2023-02-12T09:27:07.704Z,4.42
2023-02-12T09:30:13.232Z,28.35
2023-02-12T09:33:12.464Z,17.42
2023-02-12T09:36:20.608Z,4.75
2023-02-12T09:39:26.171Z,10.72
2023-02-12T09:42:44.364Z,47.95
2023-02-12T09:45:55.194Z,6.12
2023-02-12T09:49:16.756Z,9.40
2023-02-12T09:52:33.435Z,2.00
2023-02-12T09:55:46.177Z,2.47
2023-02-12T09:58:57.133Z,4.22
2023-02-12T10:02:02.730Z,4.03
2023-02-12T10:05:08.798Z,10.00
2023-02-12T10:08:31.994Z,9.30
2023-02-12T10:12:10.807Z,10.82
2023-02-12T10:15:33.774Z,3.17
2023-02-12T10:19:08.594Z,3.67
2023-02-12T10:22:51.357Z,19.95
2023-02-12T10:26:08.857Z,17.37
2023-02-12T10:29:17.754Z,15.10
2023-02-12T10:32:39.214Z,5.45
2023-02-12T10:35:44.724Z,3.75
2023-02-12T10:38:47.268Z,3.55
2023-02-12T10:42:07.588Z,6.15
2023-02-12T10:45:13.274Z,5.50
2023-02-12T10:48:22.928Z,4.67
2023-02-12T10:55:01.929Z,5.25
2023-02-12T10:58:07.439Z,7.05
2023-02-12T11:01:14.208Z,3.65
2023-02-12T11:04:39.512Z,4.22
2023-02-12T11:07:45.032Z,2.12
2023-02-12T11:10:55.731Z,2.25
2023-02-12T11:17:16.471Z,3.52
2023-02-12T11:20:38.508Z,5.45
2023-02-12T11:23:53.700Z,3.85
2023-02-12T11:27:00.173Z,2.30
2023-02-12T11:30:34.971Z,3.67
2023-02-12T11:33:49.629Z,3.42
2023-02-12T11:37:00.467Z,4.92
2023-02-12T11:40:06.723Z,3.67
2023-02-12T11:43:21.030Z,3.30
2023-02-12T11:46:27.056Z,4.60
2023-02-12T11:49:45.963Z,3.92
2023-02-12T11:52:51.988Z,25.05
2023-02-12T11:55:57.001Z,10.72
2023-02-12T11:59:04.454Z,5.20
2023-02-12T12:02:11.031Z,6.03
2023-02-12T12:05:35.457Z,25.82
2023-02-12T12:08:51.496Z,2.67
2023-02-12T12:12:07.894Z,21.85
2023-02-12T12:15:40.104Z,7.47
2023-02-12T12:19:21.932Z,7.00
2023-02-12T12:23:00.740Z,5.75
2023-02-12T12:26:16.338Z,4.80
2023-02-12T12:29:41.020Z,4.80
2023-02-12T12:32:40.474Z,5.97
2023-02-12T12:36:29.642Z,9.30
2023-02-12T12:39:55.396Z,11.95
2023-02-12T12:43:14.825Z,17.05
2023-02-12T12:46:48.538Z,8.10
2023-02-12T12:50:28.363Z,10.25
2023-02-12T12:53:50.484Z,6.65
2023-02-12T12:57:12.143Z,6.10
2023-02-12T13:00:55.441Z,4.55
2023-02-12T13:04:33.776Z,4.78
2023-02-12T13:08:08.556Z,7.75
2023-02-12T13:11:31.032Z,6.87
2023-02-12T13:15:00.261Z,4.47
2023-02-12T13:18:25.866Z,7.30
2023-02-12T13:22:04.764Z,7.90
2023-02-12T13:25:34.129Z,4.60
2023-02-12T13:28:52.499Z,5.40
2023-02-12T13:32:18.333Z,4.53
2023-02-12T13:35:32.958Z,4.97
2023-02-12T13:38:49.211Z,5.53
2023-02-12T13:41:55.655Z,4.83
2023-02-12T13:45:21.569Z,4.67
2023-02-12T13:48:40.515Z,4.95
2023-02-12T13:51:59.794Z,4.95
2023-02-12T13:55:33.919Z,6.78
2023-02-12T13:58:51.624Z,3.80
2023-02-12T14:01:59.945Z,3.22
2023-02-12T14:05:33.898Z,4.17
2023-02-12T14:08:49.535Z,6.90
2023-02-12T14:12:06.052Z,10.08
2023-02-12T14:15:40.793Z,3.80
2023-02-12T14:18:50.244Z,6.08
2023-02-12T14:21:56.813Z,3.58
2023-02-12T14:25:05.784Z,6.53
2023-02-12T14:28:13.659Z,5.47
2023-02-12T14:31:39.646Z,6.85
2023-02-12T14:34:52.743Z,5.25
2023-02-12T14:37:58.867Z,6.58
2023-02-12T14:41:06.030Z,2.85
2023-02-12T14:44:31.029Z,5.72
2023-02-12T14:47:51.273Z,6.83
2023-02-12T14:51:00.931Z,10.85
2023-02-12T14:54:07.309Z,6.08
2023-02-12T14:57:15.224Z,4.55
2023-02-12T15:00:37.522Z,6.53
2023-02-12T15:03:54.519Z,8.38
2023-02-12T15:07:08.278Z,6.78
2023-02-12T15:10:21.458Z,5.33
2023-02-12T15:13:38.552Z,6.78
2023-02-12T15:16:55.225Z,9.60
2023-02-12T15:20:09.708Z,8.15
2023-02-12T15:23:14.373Z,6.90
2023-02-12T15:26:20.982Z,4.05
2023-02-12T15:29:32.973Z,4.83
2023-02-12T15:32:43.774Z,6.08
2023-02-12T15:35:52.663Z,4.92
2023-02-12T15:38:59.309Z,7.87
2023-02-12T15:41:59.215Z,5.55
2023-02-12T15:45:24.187Z,4.10
2023-02-12T15:48:36.253Z,10.38
2023-02-12T15:51:49.461Z,9.38
2023-02-12T15:54:55.370Z,4.50
2023-02-12T15:58:07.054Z,11.15
2023-02-12T16:04:21.849Z,7.37
2023-02-12T16:07:27.762Z,7.25
2023-02-12T16:10:35.108Z,3.92
2023-02-12T16:13:48.827Z,9.73
2023-02-12T16:17:02.751Z,5.65
2023-02-12T16:20:13.393Z,9.20
2023-02-12T16:23:20.607Z,10.75
2023-02-12T16:26:32.792Z,7.47
2023-02-12T16:29:37.115Z,8.13
2023-02-12T16:32:57.039Z,5.92
2023-02-12T16:36:03.091Z,7.22
2023-02-12T16:39:11.947Z,9.90
2023-02-12T16:42:17.879Z,9.08
2023-02-12T16:45:46.087Z,7.90
2023-02-12T16:48:32.224Z,8.85
2023-02-12T16:51:37.422Z,7.00
2023-02-12T16:54:41.026Z,8.10
2023-02-12T16:57:34.960Z,9.75
2023-02-12T17:00:34.474Z,6.10
2023-02-12T17:03:40.204Z,12.75
2023-02-12T17:06:47.412Z,6.22
2023-02-12T17:10:05.642Z,7.20
2023-02-12T17:13:12.365Z,6.40
2023-02-12T17:16:30.386Z,9.05
2023-02-12T17:19:26.479Z,6.80
2023-02-12T17:22:36.937Z,6.55
2023-02-12T17:25:43.227Z,5.10
2023-02-12T17:28:48.430Z,7.25
2023-02-12T17:31:55.213Z,8.35
2023-02-12T17:34:54.944Z,10.23
2023-02-12T17:38:01.634Z,6.22
2023-02-12T17:41:07.775Z,8.85
2023-02-12T17:44:13.379Z,6.80
2023-02-12T17:47:17.935Z,5.95
2023-02-12T17:50:26.013Z,8.73
2023-02-12T17:53:31.530Z,6.92
2023-02-12T17:56:37.816Z,4.72
2023-02-12T17:59:42.985Z,6.50
2023-02-12T18:02:48.916Z,6.22
2023-02-12T18:05:59.650Z,5.80
2023-02-12T18:09:05.669Z,9.48
2023-02-12T18:12:12.587Z,9.98
2023-02-12T18:15:20.424Z,6.67
2023-02-12T18:18:26.213Z,5.42
2023-02-12T18:21:32.911Z,6.03
2023-02-12T18:24:40.630Z,9.15
2023-02-12T18:27:46.175Z,7.15
2023-02-12T18:30:52.538Z,5.45
2023-02-12T18:33:59.907Z,6.22
2023-02-12T18:37:04.249Z,7.03
2023-02-12T18:40:10.676Z,6.28
2023-02-12T18:43:16.914Z,6.28
2023-02-12T18:46:26.926Z,7.70
2023-02-12T18:49:33.198Z,7.90
2023-02-12T18:52:39.442Z,9.18
2023-02-12T18:55:38.089Z,12.37
2023-02-12T18:58:44.001Z,7.62
2023-02-12T19:01:49.462Z,7.35
2023-02-12T19:04:56.924Z,9.43
2023-02-12T19:07:55.881Z,8.55
2023-02-12T19:11:02.245Z,9.05
2023-02-12T19:14:09.211Z,8.88
2023-02-12T19:17:15.762Z,6.97
2023-02-12T19:20:23.278Z,6.33
2023-02-12T19:23:29.587Z,7.83
2023-02-12T19:26:38.421Z,8.28
2023-02-12T19:29:45.252Z,7.47
2023-02-12T19:32:52.002Z,5.83
2023-02-12T19:36:01.649Z,9.95
2023-02-12T19:39:07.664Z,8.10
2023-02-12T19:42:14.201Z,8.55
2023-02-12T19:45:20.528Z,8.90
2023-02-12T19:48:28.121Z,11.83
2023-02-12T19:51:36.342Z,6.75
2023-02-12T19:54:41.791Z,10.98
2023-02-12T19:57:47.628Z,9.70
2023-02-12T20:00:54.623Z,8.68
2023-02-12T20:04:03.220Z,10.40
2023-02-12T20:07:09.249Z,9.68
2023-02-12T20:10:16.725Z,10.53
2023-02-12T20:13:21.710Z,10.90
2023-02-12T20:16:29.009Z,11.57
2023-02-12T20:19:44.780Z,11.75
2023-02-12T20:22:53.421Z,12.10
2023-02-12T20:25:59.611Z,11.63
2023-02-12T20:29:05.786Z,5.05
2023-02-12T20:32:11.723Z,7.47
2023-02-12T20:35:16.916Z,7.22
2023-02-12T20:38:22.581Z,12.37
2023-02-12T20:41:27.853Z,8.85
2023-02-12T20:44:35.519Z,8.98
2023-02-12T20:47:40.938Z,10.35
2023-02-12T20:50:47.913Z,13.43
2023-02-12T20:53:53.819Z,14.25
2023-02-12T20:56:59.546Z,14.87
2023-02-12T21:00:06.028Z,8.90
2023-02-12T21:03:13.243Z,8.00
2023-02-12T21:06:18.844Z,6.15
2023-02-12T21:09:26.487Z,7.65
2023-02-12T21:12:32.968Z,15.18
2023-02-12T21:15:39.527Z,10.38
2023-02-12T21:18:45.291Z,12.45
2023-02-12T21:21:52.862Z,22.90
2023-02-12T21:24:59.892Z,16.20
2023-02-12T21:28:05.603Z,12.07
2023-02-12T21:31:10.366Z,15.10
2023-02-12T21:34:16.428Z,12.85
2023-02-12T21:37:22.064Z,14.00
2023-02-12T21:40:27.703Z,9.33
2023-02-12T21:43:34.626Z,10.98
2023-02-12T21:46:41.299Z,15.32
2023-02-12T21:49:46.816Z,15.05
2023-02-12T21:52:53.093Z,11.50
2023-02-12T21:55:59.709Z,10.25
2023-02-12T21:59:06.429Z,11.68
2023-02-12T22:02:12.584Z,10.48
2023-02-12T22:05:18.583Z,15.50
2023-02-12T22:08:23.845Z,8.95
2023-02-12T22:11:31.356Z,7.55
2023-02-12T22:14:37.449Z,7.25
2023-02-12T22:17:42.987Z,8.85
2023-02-12T22:20:48.990Z,6.72
2023-02-12T22:23:55.252Z,8.85
2023-02-12T22:27:00.694Z,6.17
2023-02-12T22:30:08.831Z,4.75
2023-02-12T22:33:14.135Z,4.42
2023-02-12T22:36:21.477Z,5.30
2023-02-12T22:39:28.395Z,7.83
2023-02-12T22:42:34.698Z,6.08
2023-02-12T22:45:40.114Z,5.70
2023-02-12T22:48:44.477Z,7.33
2023-02-12T22:51:51.272Z,4.60
2023-02-12T22:54:57.233Z,8.75
2023-02-12T22:58:03.078Z,7.67
2023-02-12T23:01:10.483Z,14.83
2023-02-12T23:04:15.897Z,14.60
2023-02-12T23:07:22.007Z,9.68
2023-02-12T23:10:27.086Z,13.22
2023-02-12T23:13:32.891Z,9.40
2023-02-12T23:16:38.471Z,13.05
2023-02-12T23:19:44.433Z,9.55
2023-02-12T23:22:50.460Z,8.85
2023-02-12T23:25:55.560Z,7.80
2023-02-12T23:29:01.623Z,8.70
2023-02-12T23:32:07.730Z,8.35
2023-02-12T23:35:12.841Z,6.30
2023-02-12T23:38:20.546Z,7.83
2023-02-12T23:41:26.639Z,7.08
2023-02-12T23:44:33.155Z,8.30
2023-02-12T23:47:39.025Z,8.20
2023-02-12T23:50:44.777Z,9.90
2023-02-12T23:53:50.985Z,6.97
2023-02-12T23:56:57.436Z,5.67
2023-02-12T23:59:58.530Z,9.15
